^^
Station Historical Data
Daily Summary for October 10, 2018 Units:  English    Metric   Both
« Previous Day
Next Day »
Daily Weekly Monthly Yearly Custom
  High: Low: Average:
Temperature: TemperatureF °F 25.5 °F 27 °F
Dew Point: DewpointF °F 25.5 °F 27 °F
Humidity: Humidity % 100 % 100 %
Wind Speed: WindSpeedMPH mph 0 mph 0 mph
Wind Gust: WindSpeedGustMPH mph - -
Wind:- - North
Pressure: PressureIn in 30.12 in -
Precipitation: 0 in    
Historical Graphs
 
 
Tabular Data for October 10, 2018
Time Temperature Dew Point Pressure Wind Wind Speed Wind Gust Humidity Rainfall Rate (Hourly)
TemperatureF °F DewpointF °F PressureIn in Calm     Humidity % HourlyPrecipIn in
00:04 28.6 °F 28.6 °F 30.13 in Calm     100 % 0 in
00:09 28.6 °F 28.6 °F 30.13 in Calm     100 % 0 in
00:14 28.6 °F 28.6 °F 30.13 in Calm     100 % 0 in
00:19 28.6 °F 28.6 °F 30.13 in Calm     100 % 0 in
00:24 28.6 °F 28.6 °F 30.13 in Calm     100 % 0 in
00:29 28.6 °F 28.6 °F 30.13 in Calm     100 % 0 in
00:34 28.6 °F 28.6 °F 30.13 in Calm     100 % 0 in
00:39 28.4 °F 28.4 °F 30.13 in Calm     100 % 0 in
00:44 28.4 °F 28.4 °F 30.12 in Calm     100 % 0 in
00:49 28.4 °F 28.4 °F 30.12 in Calm     100 % 0 in
00:54 28.4 °F 28.4 °F 30.12 in Calm     100 % 0 in
00:59 28.2 °F 28.2 °F 30.12 in Calm     100 % 0 in
01:04 28.4 °F 28.4 °F 30.12 in Calm     100 % 0 in
01:09 28.2 °F 28.2 °F 30.12 in Calm     100 % 0 in
01:14 28.2 °F 28.2 °F 30.12 in Calm     100 % 0 in
01:19 28.2 °F 28.2 °F 30.12 in Calm     100 % 0 in
01:24 28.4 °F 28.4 °F 30.12 in Calm     100 % 0 in
01:29 28.4 °F 28.4 °F 30.12 in Calm     100 % 0 in
01:34 28.4 °F 28.4 °F 30.12 in Calm     100 % 0 in
01:39 28.2 °F 28.2 °F 30.12 in Calm     100 % 0 in
01:44 28 °F 28 °F 30.12 in Calm     100 % 0 in
01:49 27.9 °F 27.9 °F 30.12 in Calm     100 % 0 in
01:54 27.9 °F 27.9 °F 30.12 in Calm     100 % 0 in
01:59 27.5 °F 27.5 °F 30.12 in Calm     100 % 0 in
02:04 27.3 °F 27.3 °F 30.12 in Calm     100 % 0 in
02:09 27.3 °F 27.3 °F 30.13 in Calm     100 % 0 in
02:14 27.3 °F 27.3 °F 30.13 in Calm     100 % 0 in
02:19 27.3 °F 27.3 °F 30.13 in Calm     100 % 0 in
02:24 27.1 °F 27.1 °F 30.13 in Calm     100 % 0 in
02:29 27.1 °F 27.1 °F 30.13 in Calm     100 % 0 in
02:34 27 °F 27 °F 30.13 in Calm     100 % 0 in
02:39 27 °F 27 °F 30.13 in Calm     100 % 0 in
02:44 27 °F 27 °F 30.13 in Calm     100 % 0 in
02:49 27 °F 27 °F 30.13 in Calm     100 % 0 in
02:54 26.8 °F 26.8 °F 30.13 in Calm     100 % 0 in
02:59 27 °F 27 °F 30.13 in Calm     100 % 0 in
03:04 26.8 °F 26.8 °F 30.13 in Calm     100 % 0 in
03:09 26.8 °F 26.8 °F 30.13 in Calm     100 % 0 in
03:14 26.8 °F 26.8 °F 30.13 in Calm     100 % 0 in
03:19 26.8 °F 26.8 °F 30.14 in Calm     100 % 0 in
03:24 27 °F 27 °F 30.13 in Calm     100 % 0 in
03:29 26.8 °F 26.8 °F 30.13 in Calm     100 % 0 in
03:34 26.8 °F 26.8 °F 30.14 in Calm     100 % 0 in
03:39 26.8 °F 26.8 °F 30.13 in Calm     100 % 0 in
03:44 26.6 °F 26.6 °F 30.13 in Calm     100 % 0 in
03:49 26.4 °F 26.4 °F 30.13 in Calm     100 % 0 in
03:54 26.4 °F 26.4 °F 30.13 in Calm     100 % 0 in
03:59 26.4 °F 26.4 °F 30.13 in Calm     100 % 0 in
04:04 26.4 °F 26.4 °F 30.13 in Calm     100 % 0 in
04:09 26.4 °F 26.4 °F 30.13 in Calm     100 % 0 in
04:14 26.4 °F 26.4 °F 30.14 in Calm     100 % 0 in
04:19 26.4 °F 26.4 °F 30.13 in Calm     100 % 0 in
04:24 26.6 °F 26.6 °F 30.14 in Calm     100 % 0 in
04:29 26.8 °F 26.8 °F 30.14 in Calm     100 % 0 in
04:34 26.6 °F 26.6 °F 30.14 in Calm     100 % 0 in
04:39 26.8 °F 26.8 °F 30.14 in Calm     100 % 0 in
04:44 26.8 °F 26.8 °F 30.14 in Calm     100 % 0 in
04:49 26.8 °F 26.8 °F 30.14 in Calm     100 % 0 in
04:54 26.6 °F 26.6 °F 30.14 in Calm     100 % 0 in
04:59 26.4 °F 26.4 °F 30.14 in Calm     100 % 0 in
05:04 26.4 °F 26.4 °F 30.14 in Calm     100 % 0 in
05:09 26.4 °F 26.4 °F 30.13 in Calm     100 % 0 in
05:14 26.4 °F 26.4 °F 30.13 in Calm     100 % 0 in
05:19 26.4 °F 26.4 °F 30.13 in Calm     100 % 0 in
05:24 26.2 °F 26.2 °F 30.14 in Calm     100 % 0 in
05:29 26.2 °F 26.2 °F 30.14 in Calm     100 % 0 in
05:34 26.2 °F 26.2 °F 30.13 in Calm     100 % 0 in
05:39 26.2 °F 26.2 °F 30.14 in Calm     100 % 0 in
05:44 26.2 °F 26.2 °F 30.14 in Calm     100 % 0 in
05:49 26.2 °F 26.2 °F 30.14 in Calm     100 % 0 in
05:54 26.4 °F 26.4 °F 30.15 in Calm     100 % 0 in
05:59 26.4 °F 26.4 °F 30.14 in Calm     100 % 0 in
06:04 26.4 °F 26.4 °F 30.14 in Calm     100 % 0 in
06:09 26.2 °F 26.2 °F 30.14 in Calm     100 % 0 in
06:14 26.2 °F 26.2 °F 30.14 in Calm     100 % 0 in
06:19 26.2 °F 26.2 °F 30.14 in Calm     100 % 0 in
06:24 26.2 °F 26.2 °F 30.13 in Calm     100 % 0 in
06:29 26.1 °F 26.1 °F 30.14 in Calm     100 % 0 in
06:34 26.2 °F 26.2 °F 30.14 in Calm     100 % 0 in
06:39 26.2 °F 26.2 °F 30.14 in Calm     100 % 0 in
06:44 26.1 °F 26.1 °F 30.14 in Calm     100 % 0 in
06:49 26.1 °F 26.1 °F 30.14 in Calm     100 % 0 in
06:54 26.2 °F 26.2 °F 30.14 in Calm     100 % 0 in
06:59 26.1 °F 26.1 °F 30.14 in Calm     100 % 0 in
07:04 26.2 °F 26.2 °F 30.14 in Calm     100 % 0 in
07:09 26.2 °F 26.2 °F 30.14 in Calm     100 % 0 in
07:14 26.2 °F 26.2 °F 30.14 in Calm     100 % 0 in
07:19 26.1 °F 26.1 °F 30.14 in Calm     100 % 0 in
07:24 26.2 °F 26.2 °F 30.14 in Calm     100 % 0 in
07:29 26.1 °F 26.1 °F 30.15 in Calm     100 % 0 in
07:34 26.1 °F 26.1 °F 30.15 in Calm     100 % 0 in
07:39 25.9 °F 25.9 °F 30.15 in Calm     100 % 0 in
07:44 25.9 °F 25.9 °F 30.15 in Calm     100 % 0 in
07:49 25.9 °F 25.9 °F 30.15 in Calm     100 % 0 in
07:54 25.9 °F 25.9 °F 30.15 in Calm     100 % 0 in
07:59 25.9 °F 25.9 °F 30.15 in Calm     100 % 0 in
08:04 25.7 °F 25.7 °F 30.15 in Calm     100 % 0 in
08:09 25.7 °F 25.7 °F 30.15 in Calm     100 % 0 in
08:14 25.7 °F 25.7 °F 30.16 in Calm     100 % 0 in
08:19 25.9 °F 25.9 °F 30.16 in Calm     100 % 0 in
08:24 25.9 °F 25.9 °F 30.15 in Calm     100 % 0 in
08:29 25.9 °F 25.9 °F 30.16 in Calm     100 % 0 in
08:34 25.9 °F 25.9 °F 30.15 in Calm     100 % 0 in
08:39 25.9 °F 25.9 °F 30.16 in Calm     100 % 0 in
08:44 25.9 °F 25.9 °F 30.16 in Calm     100 % 0 in
08:49 25.9 °F 25.9 °F 30.16 in Calm     100 % 0 in
08:54 26.1 °F 26.1 °F 30.16 in Calm     100 % 0 in
08:59 25.9 °F 25.9 °F 30.16 in Calm     100 % 0 in
09:04 25.7 °F 25.7 °F 30.16 in Calm     100 % 0 in
09:09 25.9 °F 25.9 °F 30.16 in Calm     100 % 0 in
09:14 25.9 °F 25.9 °F 30.16 in Calm     100 % 0 in
09:19 25.9 °F 25.9 °F 30.16 in Calm     100 % 0 in
09:24 25.9 °F 25.9 °F 30.16 in Calm     100 % 0 in
09:29 25.9 °F 25.9 °F 30.16 in Calm     100 % 0 in
09:34 25.9 °F 25.9 °F 30.16 in Calm     100 % 0 in
09:39 25.9 °F 25.9 °F 30.16 in Calm     100 % 0 in
09:44 25.7 °F 25.7 °F 30.16 in Calm     100 % 0 in
09:49 25.7 °F 25.7 °F 30.16 in Calm     100 % 0 in
09:54 25.5 °F 25.5 °F 30.16 in Calm     100 % 0 in
09:59 25.5 °F 25.5 °F 30.16 in Calm     100 % 0 in
10:04 25.5 °F 25.5 °F 30.16 in Calm     100 % 0 in
10:09 25.5 °F 25.5 °F 30.16 in Calm     100 % 0 in
10:14 25.5 °F 25.5 °F 30.17 in Calm     100 % 0 in
10:19 25.5 °F 25.5 °F 30.17 in Calm     100 % 0 in
10:24 25.5 °F 25.5 °F 30.16 in Calm     100 % 0 in
10:29 25.5 °F 25.5 °F 30.17 in Calm     100 % 0 in
10:34 25.5 °F 25.5 °F 30.16 in Calm     100 % 0 in
10:39 25.5 °F 25.5 °F 30.16 in Calm     100 % 0 in
10:44 25.5 °F 25.5 °F 30.16 in Calm     100 % 0 in
10:49 25.7 °F 25.7 °F 30.17 in Calm     100 % 0 in
10:54 25.5 °F 25.5 °F 30.17 in Calm     100 % 0 in
10:59 25.9 °F 25.9 °F 30.18 in Calm     100 % 0 in
11:04 25.9 °F 25.9 °F 30.18 in Calm     100 % 0 in
11:09 26.1 °F 26.1 °F 30.18 in Calm     100 % 0 in
11:14 26.1 °F 26.1 °F 30.18 in Calm     100 % 0 in
11:19 26.1 °F 26.1 °F 30.18 in Calm     100 % 0 in
11:24 26.1 °F 26.1 °F 30.18 in Calm     100 % 0 in
11:29 26.1 °F 26.1 °F 30.18 in Calm     100 % 0 in
11:34 26.1 °F 26.1 °F 30.18 in Calm     100 % 0 in
11:39 26.1 °F 26.1 °F 30.18 in Calm     100 % 0 in
11:44 26.1 °F 26.1 °F 30.18 in Calm     100 % 0 in
11:49 26.2 °F 26.2 °F 30.18 in Calm     100 % 0 in
11:54 26.4 °F 26.4 °F 30.18 in Calm     100 % 0 in
11:59 26.6 °F 26.6 °F 30.18 in Calm     100 % 0 in
12:04 27 °F 27 °F 30.18 in Calm     100 % 0 in
12:09 27.3 °F 27.3 °F 30.18 in Calm     100 % 0 in
12:14 27.3 °F 27.3 °F 30.18 in Calm     100 % 0 in
12:19 27.5 °F 27.5 °F 30.18 in Calm     100 % 0 in
12:24 27.9 °F 27.9 °F 30.17 in Calm     100 % 0 in
12:29 28 °F 28 °F 30.16 in Calm     100 % 0 in
12:34 28.6 °F 28.6 °F 30.17 in Calm     100 % 0 in
12:39 28.4 °F 28.4 °F 30.17 in Calm     100 % 0 in
12:44 28.4 °F 28.4 °F 30.17 in Calm     100 % 0 in
12:49 28.4 °F 28.4 °F 30.16 in Calm     100 % 0 in
12:54 28.8 °F 28.8 °F 30.17 in Calm     100 % 0 in
12:59 28.8 °F 28.8 °F 30.17 in Calm     100 % 0 in
13:04 28.8 °F 28.8 °F 30.16 in Calm     100 % 0 in
13:09 28.2 °F 28.2 °F 30.17 in Calm     100 % 0 in
13:14 28 °F 28 °F 30.16 in Calm     100 % 0 in
13:19 27.9 °F 27.9 °F 30.17 in Calm     100 % 0 in
13:24 27.7 °F 27.7 °F 30.17 in Calm     100 % 0 in
13:29 27.3 °F 27.3 °F 30.18 in Calm     100 % 0 in
13:34 27.3 °F 27.3 °F 30.17 in Calm     100 % 0 in
13:39 27.1 °F 27.1 °F 30.18 in Calm     100 % 0 in
13:44 26.8 °F 26.8 °F 30.17 in Calm     100 % 0 in
13:49 26.8 °F 26.8 °F 30.17 in Calm     100 % 0 in
13:54 27 °F 27 °F 30.16 in Calm     100 % 0 in
13:59 27.1 °F 27.1 °F 30.16 in Calm     100 % 0 in
14:04 27.1 °F 27.1 °F 30.15 in Calm     100 % 0 in
14:09 27.1 °F 27.1 °F 30.16 in Calm     100 % 0 in
14:14 27.3 °F 27.3 °F 30.17 in Calm     100 % 0 in
14:19 27.1 °F 27.1 °F 30.17 in Calm     100 % 0 in
14:24 27.3 °F 27.3 °F 30.17 in Calm     100 % 0 in
14:29 27.1 °F 27.1 °F 30.18 in Calm     100 % 0 in
14:34 27.1 °F 27.1 °F 30.19 in Calm     100 % 0 in
14:39 27.1 °F 27.1 °F 30.19 in Calm     100 % 0 in
14:44 27.3 °F 27.3 °F 30.19 in Calm     100 % 0 in
14:49 27.5 °F 27.5 °F 30.19 in Calm     100 % 0 in
14:54 27.3 °F 27.3 °F 30.20 in Calm     100 % 0 in
14:59 27.3 °F 27.3 °F 30.20 in Calm     100 % 0 in
15:04 27.3 °F 27.3 °F 30.20 in Calm     100 % 0 in
15:09 27.3 °F 27.3 °F 30.20 in Calm     100 % 0 in
15:14 27.1 °F 27.1 °F 30.19 in Calm     100 % 0 in
15:19 27.1 °F 27.1 °F 30.20 in Calm     100 % 0 in
15:24 27 °F 27 °F 30.20 in Calm     100 % 0 in
15:29 27 °F 27 °F 30.21 in Calm     100 % 0 in
15:34 27.1 °F 27.1 °F 30.21 in Calm     100 % 0 in
15:39 27.3 °F 27.3 °F 30.21 in Calm     100 % 0 in
15:44 27.3 °F 27.3 °F 30.21 in Calm     100 % 0 in
15:49 27.5 °F 27.5 °F 30.21 in Calm     100 % 0 in
15:54 27.7 °F 27.7 °F 30.21 in Calm     100 % 0 in
15:59 27.5 °F 27.5 °F 30.22 in Calm     100 % 0 in
16:04 27.7 °F 27.7 °F 30.22 in Calm     100 % 0 in
16:09 27.9 °F 27.9 °F 30.22 in Calm     100 % 0 in
16:14 27.9 °F 27.9 °F 30.22 in Calm     100 % 0 in
16:19 28 °F 28 °F 30.22 in Calm     100 % 0 in
16:24 28 °F 28 °F 30.23 in Calm     100 % 0 in
16:29 28 °F 28 °F 30.22 in Calm     100 % 0 in
16:34 28 °F 28 °F 30.23 in Calm     100 % 0 in
16:39 28 °F 28 °F 30.24 in Calm     100 % 0 in
16:44 28 °F 28 °F 30.23 in Calm     100 % 0 in
16:49 28 °F 28 °F 30.23 in Calm     100 % 0 in
16:54 28 °F 28 °F 30.23 in Calm     100 % 0 in
16:59 28 °F 28 °F 30.24 in Calm     100 % 0 in
17:04 27.9 °F 27.9 °F 30.24 in Calm     100 % 0 in
17:09 27.9 °F 27.9 °F 30.24 in Calm     100 % 0 in
17:14 27.7 °F 27.7 °F 30.24 in Calm     100 % 0 in
17:19 27.7 °F 27.7 °F 30.24 in Calm     100 % 0 in
17:24 27.7 °F 27.7 °F 30.24 in Calm     100 % 0 in
17:29 27.7 °F 27.7 °F 30.24 in Calm     100 % 0 in
17:34 27.7 °F 27.7 °F 30.24 in Calm     100 % 0 in
17:39 27.5 °F 27.5 °F 30.24 in Calm     100 % 0 in
17:44 27.5 °F 27.5 °F 30.24 in Calm     100 % 0 in
17:49 27.7 °F 27.7 °F 30.24 in Calm     100 % 0 in
17:54 27.5 °F 27.5 °F 30.25 in Calm     100 % 0 in
17:59 27.5 °F 27.5 °F 30.25 in Calm     100 % 0 in
18:04 27.5 °F 27.5 °F 30.26 in Calm     100 % 0 in
18:09 27.3 °F 27.3 °F 30.26 in Calm     100 % 0 in
18:14 27.3 °F 27.3 °F 30.26 in Calm     100 % 0 in
18:19 27.3 °F 27.3 °F 30.26 in Calm     100 % 0 in
18:24 27.3 °F 27.3 °F 30.26 in Calm     100 % 0 in
18:29 27.3 °F 27.3 °F 30.27 in Calm     100 % 0 in
18:34 27.3 °F 27.3 °F 30.27 in Calm     100 % 0 in
18:39 27.5 °F 27.5 °F 30.27 in Calm     100 % 0 in
18:44 27.5 °F 27.5 °F 30.26 in Calm     100 % 0 in
18:49 27.5 °F 27.5 °F 30.27 in Calm     100 % 0 in
18:54 27.5 °F 27.5 °F 30.27 in Calm     100 % 0 in
18:59 27.5 °F 27.5 °F 30.27 in Calm     100 % 0 in
19:04 27.7 °F 27.7 °F 30.27 in Calm     100 % 0 in
19:09 27.5 °F 27.5 °F 30.27 in Calm     100 % 0 in
19:14 27.5 °F 27.5 °F 30.27 in Calm     100 % 0 in
19:19 27.7 °F 27.7 °F 30.27 in Calm     100 % 0 in
19:24 27.7 °F 27.7 °F 30.27 in Calm     100 % 0 in
19:29 27.7 °F 27.7 °F 30.28 in Calm     100 % 0 in
19:34 27.7 °F 27.7 °F 30.28 in Calm     100 % 0 in
19:39 27.7 °F 27.7 °F 30.28 in Calm     100 % 0 in
19:44 27.7 °F 27.7 °F 30.28 in Calm     100 % 0 in
19:49 27.7 °F 27.7 °F 30.28 in Calm     100 % 0 in
19:54 27.7 °F 27.7 °F 30.28 in Calm     100 % 0 in
19:59 27.7 °F 27.7 °F 30.28 in Calm     100 % 0 in
20:04 27.7 °F 27.7 °F 30.28 in Calm     100 % 0 in
20:09 27.9 °F 27.9 °F 30.29 in Calm     100 % 0 in
20:14 27.9 °F 27.9 °F 30.29 in Calm     100 % 0 in
20:19 27.9 °F 27.9 °F 30.29 in Calm     100 % 0 in
20:24 27.9 °F 27.9 °F 30.29 in Calm     100 % 0 in
20:29 27.9 °F 27.9 °F 30.29 in Calm     100 % 0 in
20:34 27.9 °F 27.9 °F 30.29 in Calm     100 % 0 in
20:39 27.9 °F 27.9 °F 30.29 in Calm     100 % 0 in
20:44 27.9 °F 27.9 °F 30.29 in Calm     100 % 0 in
20:49 27.9 °F 27.9 °F 30.29 in Calm     100 % 0 in
20:54 27.9 °F 27.9 °F 30.29 in Calm     100 % 0 in
20:59 27.9 °F 27.9 °F 30.30 in Calm     100 % 0 in
21:04 27.9 °F 27.9 °F 30.30 in Calm     100 % 0 in
21:09 27.9 °F 27.9 °F 30.30 in Calm     100 % 0 in
21:14 27.9 °F 27.9 °F 30.31 in Calm     100 % 0 in
21:19 27.9 °F 27.9 °F 30.30 in Calm     100 % 0 in
21:24 28 °F 28 °F 30.31 in Calm     100 % 0 in
21:29 27.9 °F 27.9 °F 30.31 in Calm     100 % 0 in
21:34 27.9 °F 27.9 °F 30.31 in Calm     100 % 0 in
21:39 27.9 °F 27.9 °F 30.32 in Calm     100 % 0 in
21:44 27.9 °F 27.9 °F 30.31 in Calm     100 % 0 in
21:49 27.9 °F 27.9 °F 30.31 in Calm     100 % 0 in
21:54 27.9 °F 27.9 °F 30.32 in Calm     100 % 0 in
21:59 27.9 °F 27.9 °F 30.32 in Calm     100 % 0 in
22:04 27.9 °F 27.9 °F 30.32 in Calm     100 % 0 in
22:09 27.9 °F 27.9 °F 30.33 in Calm     100 % 0 in
22:14 27.9 °F 27.9 °F 30.32 in Calm     100 % 0 in
22:19 28 °F 28 °F 30.32 in Calm     100 % 0 in
22:24 28 °F 28 °F 30.32 in Calm     100 % 0 in
22:29 28 °F 28 °F 30.32 in Calm     100 % 0 in
22:34 28 °F 28 °F 30.33 in Calm     100 % 0 in
22:39 28 °F 28 °F 30.33 in Calm     100 % 0 in
22:44 28 °F 28 °F 30.33 in Calm     100 % 0 in
22:49 28.2 °F 28.2 °F 30.33 in Calm     100 % 0 in
22:54 28.2 °F 28.2 °F 30.33 in Calm     100 % 0 in
22:59 28 °F 28 °F 30.32 in Calm     100 % 0 in
23:04 28 °F 28 °F 30.32 in Calm     100 % 0 in
23:09 28 °F 28 °F 30.33 in Calm     100 % 0 in
23:14 28 °F 28 °F 30.33 in Calm     100 % 0 in
23:19 28 °F 28 °F 30.33 in Calm     100 % 0 in
23:24 28 °F 28 °F 30.33 in Calm     100 % 0 in
23:29 28 °F 28 °F 30.33 in Calm     100 % 0 in
23:34 28.2 °F 28.2 °F 30.33 in Calm     100 % 0 in
23:39 28 °F 28 °F 30.33 in Calm     100 % 0 in
23:44 28 °F 28 °F 30.33 in Calm     100 % 0 in
23:49 28 °F 28 °F 30.32 in Calm     100 % 0 in
23:54 28 °F 28 °F 30.33 in Calm     100 % 0 in
23:59 28 °F 28 °F 30.33 in Calm     100 % 0 in
Evergreen Colorado, USA
Compliments of Weather Underground - 3.5 mb